Time;durP1;ratioP1;P1;durP2;ratioP2;P2;SDS_P1;SDS_P2;PMS_P1;PMS_P2;Temp;Humidity;BMP_temperature;BMP_pressure;BME280_temperature;BME280_humidity;BME280_pressure;Samples;Min_cycle;Max_cycle;Signal;HPM_P1;HPM_P2
2023/12/29 11:36:22;;;;;;;6.73;1.97;;;;;;;9.78;100.00;100722.28;5262158;28;20429;-74
2023/12/29 11:38:56;;;;;;;12.80;2.57;;;;;;;9.75;100.00;100744.25;5248336;28;20032;-74
2023/12/29 11:42:05;;;;;;;6.13;2.00;;;;;;;9.78;100.00;100722.28;5246649;28;20021;-73
2023/12/29 11:44:36;;;;;;;11.13;2.23;;;;;;;9.61;100.00;100723.25;5229812;28;20064;-73
2023/12/29 11:47:38;;;;;;;12.73;1.67;;;;;;;9.78;100.00;100732.75;5247930;28;20037;-77
2023/12/29 11:50:10;;;;;;;9.87;2.20;;;;;;;9.50;100.00;100739.56;5249537;28;20087;-86
2023/12/29 11:52:41;;;;;;;8.47;1.77;;;;;;;9.48;100.00;100731.81;5249211;28;20040;-76
2023/12/29 11:55:14;;;;;;;5.60;1.40;;;;;;;9.48;100.00;100720.53;5249178;28;20372;-76
2023/12/29 11:57:46;;;;;;;9.53;1.57;;;;;;;9.40;100.00;100694.81;5248603;28;20230;-77
2023/12/29 12:00:17;;;;;;;6.03;1.57;;;;;;;9.39;100.00;100699.19;5249432;28;20052;-75
2023/12/29 12:02:51;;;;;;;5.10;1.30;;;;;;;9.35;100.00;100712.53;5248191;28;20516;-76
2023/12/29 12:05:45;;;;;;;5.90;1.43;;;;;;;9.35;100.00;100725.59;5249517;28;20056;-75
2023/12/29 12:08:31;;;;;;;3.87;1.30;;;;;;;9.32;100.00;100717.00;5248441;28;20037;-79
2023/12/29 12:11:34;;;;;;;6.87;1.90;;;;;;;9.39;100.00;100711.44;5249132;28;20034;-79
2023/12/29 12:14:05;;;;;;;4.70;1.27;;;;;;;9.25;100.00;100691.31;5244768;28;20471;-78
2023/12/29 12:16:42;;;;;;;3.30;1.00;;;;;;;9.31;100.00;100683.13;5249967;28;20071;-75
2023/12/29 12:19:14;;;;;;;5.10;1.63;;;;;;;9.18;100.00;100672.53;5248954;28;20017;-77
2023/12/29 12:21:48;;;;;;;4.17;1.20;;;;;;;9.25;100.00;100686.09;5281938;28;20068;-73
2023/12/29 12:24:20;;;;;;;4.20;1.02;;;;;;;9.22;100.00;100679.25;5247953;28;20036;-73
2023/12/29 12:26:51;;;;;;;6.33;1.57;;;;;;;9.27;100.00;100702.50;5252815;28;20025;-72
2023/12/29 12:29:23;;;;;;;5.07;2.00;;;;;;;9.16;100.00;100688.28;5247588;28;20017;-73
2023/12/29 12:31:55;;;;;;;5.93;1.57;;;;;;;9.14;100.00;100682.31;5247258;28;20036;-74
2023/12/29 12:34:36;;;;;;;6.20;2.40;;;;;;;9.18;100.00;100668.13;5247747;28;20099;-73
2023/12/29 12:37:08;;;;;;;4.63;1.73;;;;;;;9.21;100.00;100677.56;5245884;28;20041;-74
2023/12/29 12:39:40;;;;;;;3.93;1.37;;;;;;;9.19;100.00;100669.81;5246438;28;20028;-74
2023/12/29 12:42:11;;;;;;;4.70;2.23;;;;;;;9.20;100.00;100661.03;5245969;28;20108;-74
2023/12/29 12:45:03;;;;;;;4.17;2.17;;;;;;;9.30;100.00;100660.53;5247237;28;20101;-73
2023/12/29 12:47:41;;;;;;;5.57;2.30;;;;;;;9.24;100.00;100666.09;5263405;28;20025;-72
2023/12/29 12:50:13;;;;;;;13.20;2.00;;;;;;;9.23;100.00;100669.66;5231370;28;20148;-72
2023/12/29 12:52:45;;;;;;;8.60;2.40;;;;;;;9.19;100.00;100667.22;5235155;28;20108;-72
2023/12/29 12:55:16;;;;;;;4.73;1.53;;;;;;;9.15;100.00;100649.16;5236854;28;20696;-73
2023/12/29 12:57:48;;;;;;;3.20;1.30;;;;;;;9.16;100.00;100653.47;5233367;28;20025;-74
2023/12/29 13:00:19;;;;;;;4.87;1.53;;;;;;;9.18;100.00;100655.06;5233497;28;20277;-74
2023/12/29 13:02:50;;;;;;;4.13;1.57;;;;;;;9.19;100.00;100658.53;5226523;28;20505;-71
2023/12/29 13:05:22;;;;;;;4.47;1.97;;;;;;;9.22;100.00;100662.72;5232832;28;20017;-73
2023/12/29 13:07:55;;;;;;;3.43;1.50;;;;;;;9.11;100.00;100651.09;5233684;28;20037;-74
2023/12/29 13:10:27;;;;;;;2.93;1.53;;;;;;;9.16;100.00;100654.28;5234709;28;20100;-73
2023/12/29 13:12:58;;;;;;;5.20;2.60;;;;;;;9.14;100.00;100650.97;5233454;28;20112;-73
2023/12/29 13:15:29;;;;;;;6.60;2.87;;;;;;;9.11;100.00;100650.28;5233265;28;20068;-73
2023/12/29 13:18:01;;;;;;;4.97;1.93;;;;;;;9.18;100.00;100659.47;5234889;28;20031;-73
2023/12/29 13:20:46;;;;;;;2.80;1.83;;;;;;;9.23;100.00;100659.19;5233570;28;20033;-73
2023/12/29 13:23:18;;;;;;;4.00;2.45;;;;;;;9.21;100.00;100646.22;5234600;28;20057;-73
2023/12/29 13:25:54;;;;;;;7.93;2.37;;;;;;;9.23;100.00;100643.50;5234388;28;20516;-73
2023/12/29 13:28:27;;;;;;;7.60;2.27;;;;;;;9.30;100.00;100621.31;5235860;28;20051;-73
2023/12/29 13:31:00;;;;;;;6.30;2.70;;;;;;;9.29;100.00;100630.94;5234416;28;20021;-73
2023/12/29 13:33:53;;;;;;;10.47;2.73;;;;;;;9.39;100.00;100628.63;5232871;28;20039;-72
2023/12/29 13:36:41;;;;;;;7.13;2.50;;;;;;;9.47;100.00;100622.09;5233741;28;20038;-75
2023/12/29 13:39:24;;;;;;;11.07;2.77;;;;;;;9.47;100.00;100606.41;5234220;28;20120;-72
2023/12/29 13:41:58;;;;;;;8.73;2.43;;;;;;;9.51;100.00;100615.78;5232671;28;20033;-72
2023/12/29 13:44:30;;;;;;;6.37;1.93;;;;;;;9.50;100.00;100606.22;5232743;28;20079;-71
2023/12/29 13:47:03;;;;;;;12.40;2.80;;;;;;;9.56;100.00;100611.94;5233640;28;20029;-74
2023/12/29 13:49:36;;;;;;;7.30;2.03;;;;;;;9.57;100.00;100610.16;5230101;28;20055;-78
2023/12/29 13:52:07;;;;;;;12.63;2.73;;;;;;;9.53;100.00;100613.91;5233502;28;20488;-74
2023/12/29 13:54:45;;;;;;;10.87;3.43;;;;;;;9.66;100.00;100625.31;5233670;28;20033;-73
2023/12/29 13:57:16;;;;;;;8.80;2.57;;;;;;;9.65;100.00;100620.19;5232156;28;20088;-75
2023/12/29 13:59:49;;;;;;;7.63;2.33;;;;;;;9.72;100.00;100623.28;5231297;28;20076;-73
2023/12/29 14:02:35;;;;;;;5.37;1.70;;;;;;;9.77;100.00;100616.00;5232995;28;20473;-71
2023/12/29 14:05:22;;;;;;;9.97;1.90;;;;;;;9.73;100.00;100604.88;5233103;28;20026;-72
2023/12/29 14:08:03;;;;;;;5.17;1.50;;;;;;;9.83;100.00;100605.16;5231692;28;20079;-71
2023/12/29 14:10:36;;;;;;;5.83;2.20;;;;;;;9.72;100.00;100604.97;5229116;28;20022;-72
2023/12/29 14:13:17;;;;;;;3.40;1.20;;;;;;;9.80;100.00;100605.34;5230923;28;20399;-72
2023/12/29 14:15:52;;;;;;;4.60;1.30;;;;;;;9.73;100.00;100599.63;5232265;28;21139;-73
2023/12/29 14:18:32;;;;;;;3.20;1.55;;;;;;;9.74;100.00;100603.94;5232857;28;20067;-73
2023/12/29 14:21:41;;;;;;;4.47;1.23;;;;;;;9.77;100.00;100600.28;5233182;28;20632;-71
2023/12/29 14:24:14;;;;;;;7.13;1.73;;;;;;;9.76;100.00;100620.38;5231084;28;20060;-69
2023/12/29 14:26:52;;;;;;;3.03;1.10;;;;;;;9.76;100.00;100622.97;5230301;28;20022;-70
2023/12/29 14:29:23;;;;;;;4.63;1.03;;;;;;;9.77;100.00;100623.84;5229705;28;20033;-72
2023/12/29 14:31:56;;;;;;;3.93;1.70;;;;;;;9.74;100.00;100617.00;5232599;28;20033;-71
2023/12/29 14:34:27;;;;;;;3.13;1.00;;;;;;;9.63;100.00;100609.81;5232458;28;20130;-70
2023/12/29 14:37:00;;;;;;;4.83;1.70;;;;;;;9.72;100.00;100634.56;5233069;28;20034;-70
2023/12/29 14:39:32;;;;;;;2.77;1.20;;;;;;;9.71;100.00;100639.88;5231673;28;20029;-72
2023/12/29 14:42:03;;;;;;;3.07;1.20;;;;;;;9.67;100.00;100632.22;5231548;28;20084;-72
2023/12/29 14:44:36;;;;;;;4.43;1.23;;;;;;;9.67;100.00;100629.59;5231713;28;20102;-72
2023/12/29 14:47:07;;;;;;;5.63;1.20;;;;;;;9.67;100.00;100641.81;5230426;28;20469;-71
2023/12/29 14:49:38;;;;;;;6.30;1.40;;;;;;;9.73;100.00;100659.78;5234415;28;20029;-69
2023/12/29 14:52:10;;;;;;;4.97;1.30;;;;;;;9.76;100.00;100645.66;5231840;28;20025;-68
2023/12/29 14:54:42;;;;;;;4.27;1.27;;;;;;;9.64;100.00;100627.19;5229892;28;20021;-71
2023/12/29 14:57:13;;;;;;;4.67;1.47;;;;;;;9.64;100.00;100642.03;5229194;28;20027;-72
2023/12/29 14:59:44;;;;;;;5.17;1.43;;;;;;;9.60;100.00;100637.91;5232674;28;20021;-71
2023/12/29 15:02:15;;;;;;;4.00;1.40;;;;;;;9.55;100.00;100638.16;5231759;28;20079;-70
2023/12/29 15:04:49;;;;;;;7.13;1.67;;;;;;;9.53;100.00;100642.69;5231299;28;20060;-72
2023/12/29 15:07:23;;;;;;;5.77;1.43;;;;;;;9.51;100.00;100631.47;5232018;28;20100;-70
2023/12/29 15:09:55;;;;;;;;;;;;;;;9.62;100.00;100612.50;5231728;28;20032;-72
2023/12/29 15:12:26;;;;;;;4.00;0.77;;;;;;;9.32;100.00;100622.06;5231343;28;20364;-72
2023/12/29 15:14:57;;;;;;;2.60;1.03;;;;;;;9.21;100.00;100614.88;5231622;28;20033;-71
2023/12/29 15:17:28;;;;;;;3.10;1.27;;;;;;;9.04;100.00;100571.44;5232388;28;20029;-72
2023/12/29 15:20:00;;;;;;;2.90;0.90;;;;;;;9.16;100.00;100596.81;5232056;28;20032;-73
2023/12/29 15:22:31;;;;;;;3.20;1.00;;;;;;;9.17;100.00;100588.06;5230241;28;20025;-71
2023/12/29 15:25:02;;;;;;;3.83;1.37;;;;;;;9.11;100.00;100577.13;5229496;28;20481;-71
2023/12/29 15:27:34;;;;;;;3.77;1.53;;;;;;;9.10;100.00;100586.72;5229164;28;20060;-72
2023/12/29 15:30:06;;;;;;;4.50;1.40;;;;;;;9.17;100.00;100575.00;5220520;28;20519;-74
2023/12/29 15:32:37;;;;;;;7.00;1.77;;;;;;;9.33;100.00;100579.31;5232915;28;20029;-71
2023/12/29 15:35:08;;;;;;;5.80;1.80;;;;;;;9.38;100.00;100574.66;5230487;28;20072;-71
2023/12/29 15:37:40;;;;;;;3.87;1.90;;;;;;;9.41;100.00;100573.63;5230423;28;20095;-72
2023/12/29 15:40:11;;;;;;;3.53;1.97;;;;;;;9.37;100.00;100567.78;5229460;28;20024;-72
2023/12/29 15:42:42;;;;;;;3.47;1.43;;;;;;;9.44;100.00;100558.59;5229167;28;20024;-73
2023/12/29 15:45:13;;;;;;;3.73;1.50;;;;;;;9.39;100.00;100552.00;5229267;28;20029;-70
2023/12/29 15:47:45;;;;;;;5.97;1.73;;;;;;;9.40;100.00;100556.28;5230132;28;20091;-69
2023/12/29 15:50:16;;;;;;;7.17;1.60;;;;;;;9.43;100.00;100559.56;5230246;28;20028;-72
2023/12/29 15:52:47;;;;;;;9.90;2.00;;;;;;;9.37;100.00;100553.84;5230250;28;20033;-70
2023/12/29 15:55:19;;;;;;;5.60;1.53;;;;;;;9.47;100.00;100562.81;5230414;28;20030;-73
2023/12/29 15:57:50;;;;;;;4.93;1.50;;;;;;;9.51;100.00;100563.50;5230413;28;20116;-72
2023/12/29 16:00:22;;;;;;;5.87;2.03;;;;;;;9.59;100.00;100566.47;5227887;28;20034;-71
2023/12/29 16:02:53;;;;;;;7.23;2.87;;;;;;;9.51;100.00;100558.25;5224658;28;20021;-70
2023/12/29 16:05:25;;;;;;;7.00;2.20;;;;;;;9.62;100.00;100555.81;5227753;28;20022;-71
2023/12/29 16:07:56;;;;;;;8.30;1.80;;;;;;;9.46;100.00;100550.66;5229249;28;20021;-71
2023/12/29 16:10:28;;;;;;;3.83;1.53;;;;;;;9.52;100.00;100545.09;5229298;28;20021;-78
2023/12/29 16:12:59;;;;;;;7.57;2.57;;;;;;;9.48;100.00;100553.22;5229713;28;20017;-81
2023/12/29 16:15:31;;;;;;;4.67;1.60;;;;;;;9.54;100.00;100560.69;5233917;28;20068;-77
2023/12/29 16:18:02;;;;;;;5.90;1.40;;;;;;;9.47;100.00;100556.75;5232011;28;20056;-78
2023/12/29 16:20:34;;;;;;;8.17;1.73;;;;;;;9.41;100.00;100557.94;5233341;28;20047;-79
2023/12/29 16:23:05;;;;;;;4.10;1.30;;;;;;;9.47;100.00;100541.06;5236544;28;20631;-76
2023/12/29 16:25:36;;;;;;;5.13;1.43;;;;;;;9.48;100.00;100545.38;5236832;28;20104;-75
2023/12/29 16:28:07;;;;;;;6.83;1.87;;;;;;;9.43;100.00;100536.03;5233909;28;20105;-75
2023/12/29 16:30:39;;;;;;;5.90;1.80;;;;;;;9.57;100.00;100536.97;5238006;28;20025;-79
2023/12/29 16:33:10;;;;;;;5.90;2.20;;;;;;;9.41;100.00;100532.66;5247913;28;20026;-81
2023/12/29 16:35:41;;;;;;;4.80;2.07;;;;;;;9.46;100.00;100526.31;5237021;28;20092;-76
2023/12/29 16:38:13;;;;;;;5.40;1.70;;;;;;;9.38;100.00;100532.00;5249414;28;20074;-82
2023/12/29 16:40:45;;;;;;;6.40;2.37;;;;;;;9.19;100.00;100499.97;5247476;28;20392;-82
2023/12/29 16:43:16;;;;;;;9.83;2.50;;;;;;;9.19;100.00;100520.88;5237157;28;20113;-80
2023/12/29 16:45:48;;;;;;;8.13;2.93;;;;;;;9.29;100.00;100525.53;5239966;28;20112;-89
2023/12/29 16:48:19;;;;;;;8.17;2.50;;;;;;;9.37;100.00;100528.56;5243018;28;20033;-84
2023/12/29 16:50:50;;;;;;;10.10;2.53;;;;;;;9.18;100.00;100500.09;5239596;28;20029;-78
2023/12/29 16:53:24;;;;;;;4.17;1.97;;;;;;;9.04;100.00;100475.59;5239051;28;20021;-85
2023/12/29 16:55:57;;;;;;;8.70;2.42;;;;;;;9.29;100.00;100517.72;5238662;28;20036;-76
2023/12/29 16:58:28;;;;;;;7.30;2.37;;;;;;;9.15;100.00;100508.06;5239146;28;20041;-81
2023/12/29 17:01:00;;;;;;;5.37;1.93;;;;;;;9.30;100.00;100537.69;5236518;28;20091;-73
2023/12/29 17:03:31;;;;;;;8.27;2.00;;;;;;;9.27;100.00;100516.94;5238103;28;20045;-74
2023/12/29 17:06:02;;;;;;;9.23;3.10;;;;;;;9.40;100.00;100535.38;5240907;28;20052;-78
2023/12/29 17:08:35;;;;;;;7.27;2.20;;;;;;;9.34;100.00;100536.56;5237450;28;20032;-75
2023/12/29 17:11:06;;;;;;;11.27;3.07;;;;;;;9.39;100.00;100536.31;5235216;28;20409;-75
2023/12/29 17:13:38;;;;;;;6.03;2.37;;;;;;;9.38;100.00;100538.06;5233811;28;20021;-76
2023/12/29 17:16:09;;;;;;;7.60;2.47;;;;;;;9.35;100.00;100532.19;5235265;28;20029;-74
2023/12/29 17:18:40;;;;;;;8.07;2.60;;;;;;;9.35;100.00;100532.19;5235367;28;20026;-75
2023/12/29 17:21:12;;;;;;;6.97;2.20;;;;;;;9.32;100.00;100543.66;5234820;28;20022;-74
2023/12/29 17:23:43;;;;;;;7.63;2.90;;;;;;;9.35;100.00;100550.50;5266401;28;20033;-72
2023/12/29 17:26:14;;;;;;;8.53;3.27;;;;;;;9.27;100.00;100543.94;5227123;28;20044;-76
2023/12/29 17:28:46;;;;;;;8.13;2.17;;;;;;;9.45;100.00;100562.06;5248509;28;20033;-75
2023/12/29 17:31:18;;;;;;;9.53;2.10;;;;;;;9.51;100.00;100560.88;5234363;28;20429;-70
2023/12/29 17:33:49;;;;;;;8.67;2.27;;;;;;;9.49;100.00;100560.13;5234655;28;20052;-73
2023/12/29 17:36:20;;;;;;;5.80;3.10;;;;;;;9.38;100.00;100545.06;5228549;28;20124;-74
2023/12/29 17:38:52;;;;;;;9.67;2.73;;;;;;;9.42;100.00;100557.88;5225617;28;20040;-74
2023/12/29 17:41:23;;;;;;;10.27;2.87;;;;;;;9.34;100.00;100554.84;5234280;28;20431;-72
2023/12/29 17:43:55;;;;;;;12.37;3.43;;;;;;;9.27;100.00;100540.47;5241053;28;20033;-72
2023/12/29 17:46:26;;;;;;;9.57;3.17;;;;;;;9.30;100.00;100558.59;5234318;28;20117;-72
2023/12/29 17:48:57;;;;;;;6.57;2.20;;;;;;;9.31;100.00;100563.75;5231057;28;20528;-73
2023/12/29 17:51:28;;;;;;;10.57;3.63;;;;;;;9.37;100.00;100577.38;5230036;28;20033;-72
2023/12/29 17:54:01;;;;;;;10.33;2.73;;;;;;;9.24;100.00;100575.47;5235144;28;20033;-75
2023/12/29 17:56:33;;;;;;;13.90;2.80;;;;;;;9.34;100.00;100591.44;5233931;28;20033;-74
2023/12/29 17:59:08;;;;;;;7.53;2.50;;;;;;;9.34;100.00;100595.88;5227987;28;20196;-74
2023/12/29 18:01:39;;;;;;;11.07;3.07;;;;;;;9.26;100.00;100607.59;5231679;28;20026;-74
2023/12/29 18:04:10;;;;;;;9.03;2.57;;;;;;;9.32;100.00;100614.22;5234140;28;20094;-72
2023/12/29 18:06:42;;;;;;;7.63;2.90;;;;;;;9.18;100.00;100609.81;5233296;28;20033;-73
2023/12/29 18:09:14;;;;;;;9.50;2.67;;;;;;;9.09;100.00;100619.03;5233963;28;20575;-74
2023/12/29 18:11:50;;;;;;;4.20;1.20;;;;;;;8.93;100.00;100600.78;5233230;28;20025;-72
2023/12/29 18:14:21;;;;;;;9.20;2.77;;;;;;;8.92;100.00;100606.94;5233336;28;20124;-72
2023/12/29 18:16:53;;;;;;;10.90;1.70;;;;;;;8.83;100.00;100616.94;5233040;28;20116;-72
2023/12/29 18:19:24;;;;;;;5.67;1.73;;;;;;;8.80;100.00;100626.72;5233312;28;20071;-72
2023/12/29 18:21:55;;;;;;;8.30;1.93;;;;;;;8.69;100.00;100617.72;5233472;28;20729;-71
2023/12/29 18:24:26;;;;;;;4.67;1.00;;;;;;;8.64;100.00;100640.63;5232458;28;20026;-76
2023/12/29 18:26:58;;;;;;;5.10;1.43;;;;;;;8.58;100.00;100634.00;5231499;28;20036;-73
2023/12/29 18:29:29;;;;;;;6.97;1.37;;;;;;;8.48;100.00;100617.13;5232750;28;20025;-73
2023/12/29 18:32:01;;;;;;;8.73;2.63;;;;;;;8.42;100.00;100599.16;5232561;28;20049;-75
2023/12/29 18:34:32;;;;;;;5.97;1.80;;;;;;;8.53;100.00;100630.75;5233837;28;20052;-71
2023/12/29 18:37:04;;;;;;;6.57;1.80;;;;;;;8.36;100.00;100631.66;5234398;28;20033;-74
2023/12/29 18:39:37;;;;;;;5.53;1.80;;;;;;;8.36;100.00;100631.66;5232263;28;20087;-72
2023/12/29 18:42:08;;;;;;;5.47;1.87;;;;;;;8.36;100.00;100642.09;5230606;28;20468;-73
2023/12/29 18:44:40;;;;;;;10.57;3.20;;;;;;;8.34;100.00;100636.13;5224940;28;20041;-74
2023/12/29 18:47:11;;;;;;;7.20;2.73;;;;;;;8.34;100.00;100657.00;5232235;28;20056;-72
2023/12/29 18:49:43;;;;;;;9.03;1.93;;;;;;;8.34;100.00;100654.41;5230057;28;20040;-72
2023/12/29 18:52:14;;;;;;;10.50;2.57;;;;;;;8.35;100.00;100656.06;5234098;28;20033;-69
2023/12/29 18:54:49;;;;;;;13.57;3.57;;;;;;;8.42;100.00;100664.41;5233499;28;20026;-71
2023/12/29 18:57:20;;;;;;;12.77;3.20;;;;;;;8.46;100.00;100668.56;5228953;28;20131;-70
2023/12/29 18:59:52;;;;;;;13.50;2.47;;;;;;;8.50;100.00;100670.06;5229451;28;20062;-71
2023/12/29 19:02:23;;;;;;;13.37;2.57;;;;;;;8.39;100.00;100665.44;5233173;28;20380;-71
2023/12/29 19:04:54;;;;;;;13.90;4.33;;;;;;;8.45;100.00;100678.16;5232919;28;20036;-71
2023/12/29 19:07:26;;;;;;;9.17;2.63;;;;;;;8.47;100.00;100680.66;5230637;28;20108;-71
2023/12/29 19:09:57;;;;;;;13.47;2.93;;;;;;;8.51;100.00;100679.59;5231915;28;20029;-69
2023/12/29 19:12:28;;;;;;;10.00;2.87;;;;;;;8.51;100.00;100689.19;5231115;28;20037;-68
2023/12/29 19:15:00;;;;;;;12.07;3.03;;;;;;;8.47;100.00;100684.13;5233567;28;20033;-70
2023/12/29 19:17:31;;;;;;;9.50;2.47;;;;;;;8.50;100.00;100688.34;5232568;28;20265;-70
2023/12/29 19:20:03;;;;;;;13.50;2.87;;;;;;;8.44;100.00;100678.22;5233069;28;20032;-71
2023/12/29 19:22:37;;;;;;;11.13;2.87;;;;;;;8.42;100.00;100686.16;5233778;28;20021;-71
2023/12/29 19:25:10;;;;;;;14.00;4.30;;;;;;;8.46;100.00;100685.06;5232021;28;20028;-71
2023/12/29 19:27:41;;;;;;;14.67;4.30;;;;;;;8.45;100.00;100688.59;5232645;28;20041;-69
2023/12/29 19:30:14;;;;;;;14.20;4.67;;;;;;;8.42;100.00;100693.97;5232904;28;20018;-69
2023/12/29 19:32:45;;;;;;;13.00;3.57;;;;;;;8.45;100.00;100690.34;5230296;28;20082;-72
2023/12/29 19:35:17;;;;;;;13.70;4.93;;;;;;;8.37;100.00;100693.38;5231992;28;20042;-70
2023/12/29 19:37:48;;;;;;;11.53;4.50;;;;;;;8.40;100.00;100701.03;5230805;28;20025;-72
2023/12/29 19:40:20;;;;;;;14.93;4.07;;;;;;;8.43;100.00;100708.69;5232135;28;20033;-70
2023/12/29 19:42:51;;;;;;;11.57;3.90;;;;;;;8.41;100.00;100700.09;5231461;28;20052;-71
2023/12/29 19:45:22;;;;;;;8.60;2.83;;;;;;;8.42;100.00;100701.81;5231743;28;20022;-70
2023/12/29 19:47:54;;;;;;;15.17;3.20;;;;;;;8.44;100.00;100692.13;5232475;28;20032;-70
2023/12/29 19:50:25;;;;;;;14.37;3.57;;;;;;;8.47;100.00;100691.97;5231074;28;20022;-70
2023/12/29 19:52:56;;;;;;;14.83;3.47;;;;;;;8.51;100.00;100699.63;5232382;28;20033;-69
2023/12/29 19:55:28;;;;;;;18.07;3.97;;;;;;;8.47;100.00;100694.56;5232411;28;20029;-71
2023/12/29 19:58:00;;;;;;;13.90;4.00;;;;;;;8.51;100.00;100695.25;5227794;28;20492;-72
2023/12/29 20:00:31;;;;;;;21.00;3.90;;;;;;;8.50;100.00;100693.56;5235818;28;20010;-71
2023/12/29 20:03:03;;;;;;;15.60;4.10;;;;;;;8.53;100.00;100687.34;5236596;28;20029;-71
2023/12/29 20:05:35;;;;;;;13.83;3.83;;;;;;;8.67;100.00;100694.47;5235510;28;20025;-70
2023/12/29 20:08:08;;;;;;;17.90;4.30;;;;;;;8.62;100.00;100692.09;5235849;28;20026;-67
2023/12/29 20:10:39;;;;;;;14.97;3.50;;;;;;;8.68;100.00;100686.53;5234942;28;20022;-71
2023/12/29 20:13:11;;;;;;;16.70;4.43;;;;;;;8.55;100.00;100688.09;5236487;28;20380;-69
2023/12/29 20:15:44;;;;;;;13.33;3.53;;;;;;;8.58;100.00;100696.66;5235472;28;20029;-71
2023/12/29 20:18:15;;;;;;;20.07;5.03;;;;;;;8.62;100.00;100699.94;5236186;28;20025;-68
2023/12/29 20:20:46;;;;;;;15.70;4.70;;;;;;;8.61;100.00;100705.22;5235753;28;20036;-68
2023/12/29 20:23:17;;;;;;;16.70;5.33;;;;;;;8.55;100.00;100695.94;5236270;28;20029;-75
2023/12/29 20:25:49;;;;;;;14.13;3.70;;;;;;;8.62;100.00;100712.13;5232488;28;20044;-73
2023/12/29 20:28:20;;;;;;;21.37;4.90;;;;;;;8.58;100.00;100711.47;5235848;28;20037;-70
2023/12/29 20:30:52;;;;;;;20.00;4.70;;;;;;;8.65;100.00;100704.13;5236245;28;20595;-68
2023/12/29 20:33:23;;;;;;;20.73;5.53;;;;;;;8.53;100.00;100698.63;5235443;28;20396;-75
2023/12/29 20:35:54;;;;;;;14.90;5.20;;;;;;;8.52;100.00;100706.53;5235485;28;20042;-74
2023/12/29 20:38:26;;;;;;;20.73;4.93;;;;;;;8.53;100.00;100708.22;5235510;28;20045;-72
2023/12/29 20:40:57;;;;;;;19.43;5.13;;;;;;;8.46;100.00;100712.94;5233843;28;20021;-71
2023/12/29 20:43:28;;;;;;;21.23;4.40;;;;;;;8.52;100.00;100704.75;5234042;28;20021;-71
2023/12/29 20:45:59;;;;;;;23.57;4.33;;;;;;;8.40;100.00;100711.47;5234130;28;20064;-70
2023/12/29 20:48:31;;;;;;;21.10;5.20;;;;;;;8.40;100.00;100714.09;5235398;28;20056;-71
2023/12/29 20:51:02;;;;;;;18.23;4.73;;;;;;;8.35;100.00;100727.38;5235938;28;20362;-69
2023/12/29 20:53:34;;;;;;;15.87;4.70;;;;;;;8.29;100.00;100727.69;5234511;28;20033;-71
2023/12/29 20:56:09;;;;;;;18.37;5.87;;;;;;;8.34;100.00;100741.34;5233763;28;20025;-70
2023/12/29 20:58:41;;;;;;;17.07;4.37;;;;;;;8.36;100.00;100738.66;5234702;28;20025;-69
2023/12/29 21:01:13;;;;;;;14.10;4.13;;;;;;;8.29;100.00;100745.13;5234390;28;20033;-70
2023/12/29 21:03:44;;;;;;;17.27;4.43;;;;;;;8.32;100.00;100755.41;5233007;28;20067;-70
2023/12/29 21:06:16;;;;;;;17.60;4.63;;;;;;;8.28;100.00;100754.72;5234334;28;20522;-70
2023/12/29 21:08:48;;;;;;;23.47;4.63;;;;;;;8.27;100.00;100747.81;5239401;28;20025;-71
2023/12/29 21:11:20;;;;;;;15.53;4.33;;;;;;;8.29;100.00;100758.19;5235757;28;20021;-70
2023/12/29 21:13:51;;;;;;;18.30;4.97;;;;;;;8.25;100.00;100761.84;5234596;28;20079;-68
2023/12/29 21:16:23;;;;;;;16.93;4.03;;;;;;;8.10;100.00;100761.72;5233651;28;20448;-70
2023/12/29 21:18:55;;;;;;;16.13;4.80;;;;;;;8.10;100.00;100757.34;5235649;28;20029;-70
2023/12/29 21:21:26;;;;;;;27.73;5.00;;;;;;;8.16;100.00;100764.03;5233717;28;20034;-71
2023/12/29 21:23:57;;;;;;;18.27;4.20;;;;;;;8.16;100.00;100764.03;5235115;28;20022;-73
2023/12/29 21:26:28;;;;;;;19.53;4.50;;;;;;;8.08;100.00;100760.97;5234085;28;20032;-68
2023/12/29 21:29:02;;;;;;;20.13;4.73;;;;;;;8.09;100.00;100765.25;5235204;28;20112;-73
2023/12/29 21:31:33;;;;;;;19.57;3.10;;;;;;;8.11;100.00;100752.97;5234139;28;20527;-75
2023/12/29 21:34:04;;;;;;;15.47;4.10;;;;;;;8.14;100.00;100763.25;5235187;28;20148;-74
2023/12/29 21:36:36;;;;;;;17.23;3.87;;;;;;;8.10;100.00;100756.50;5234292;28;20033;-74
2023/12/29 21:39:07;;;;;;;17.73;4.43;;;;;;;7.97;100.00;100741.50;5232682;28;20063;-73
2023/12/29 21:41:38;;;;;;;18.50;3.73;;;;;;;8.12;100.00;100744.22;5233948;28;20043;-75
2023/12/29 21:44:09;;;;;;;20.70;4.27;;;;;;;8.14;100.00;100745.00;5234396;28;20041;-75
2023/12/29 21:46:41;;;;;;;20.97;4.17;;;;;;;8.03;100.00;100755.97;5234956;28;20038;-73
2023/12/29 21:49:13;;;;;;;16.47;4.57;;;;;;;8.07;100.00;100759.25;5231213;28;20136;-72
2023/12/29 21:51:45;;;;;;;17.57;4.27;;;;;;;8.09;100.00;100757.44;5233707;28;20029;-72
2023/12/29 21:54:16;;;;;;;18.83;3.97;;;;;;;8.04;100.00;100764.63;5234562;28;20106;-71
2023/12/29 21:56:48;;;;;;;14.63;4.50;;;;;;;7.97;100.00;100759.75;5256073;28;20062;-71
2023/12/29 21:59:19;;;;;;;18.17;3.53;;;;;;;8.03;100.00;100755.97;5234253;28;20199;-72
2023/12/29 22:01:50;;;;;;;15.50;3.83;;;;;;;8.13;100.00;100758.13;5233450;28;20114;-71
2023/12/29 22:04:24;;;;;;;15.87;3.50;;;;;;;8.08;100.00;100753.97;5234484;28;20033;-71
2023/12/29 22:06:55;;;;;;;16.98;3.88;;;;;;;8.03;100.00;100757.75;5234309;28;20033;-75
2023/12/29 22:09:27;;;;;;;13.83;3.73;;;;;;;7.95;100.00;100758.97;5233186;28;20627;-72
2023/12/29 22:11:59;;;;;;;21.87;4.43;;;;;;;7.97;100.00;100759.75;5231890;28;20026;-72
2023/12/29 22:14:30;;;;;;;12.73;3.57;;;;;;;7.98;100.00;100766.63;5232785;28;20032;-72
2023/12/29 22:17:01;;;;;;;20.63;4.50;;;;;;;7.99;100.00;100777.91;5234145;28;20032;-72
2023/12/29 22:19:32;;;;;;;20.50;5.80;;;;;;;8.02;100.00;100766.47;5232501;28;20021;-72
2023/12/29 22:22:04;;;;;;;16.53;3.53;;;;;;;8.01;100.00;100777.84;5233749;28;20136;-72
2023/12/29 22:24:35;;;;;;;14.43;3.43;;;;;;;8.06;100.00;100779.31;5233657;28;20060;-70
2023/12/29 22:27:07;;;;;;;19.00;4.33;;;;;;;7.98;100.00;100779.69;5232069;28;20404;-74
2023/12/29 22:29:40;;;;;;;21.43;4.47;;;;;;;7.97;100.00;100796.25;5233638;28;20045;-73
2023/12/29 22:32:12;;;;;;;21.00;4.63;;;;;;;7.99;100.00;100802.22;5233090;28;20025;-73
2023/12/29 22:34:43;;;;;;;15.57;3.33;;;;;;;7.91;100.00;100790.47;5233386;28;20799;-73
2023/12/29 22:37:14;;;;;;;22.97;4.27;;;;;;;7.93;100.00;100809.50;5231789;28;20503;-72
2023/12/29 22:39:45;;;;;;;13.63;2.90;;;;;;;7.90;100.00;100802.69;5233419;28;20116;-73
2023/12/29 22:42:17;;;;;;;19.83;3.63;;;;;;;7.88;100.00;100796.69;5231861;28;20025;-72
2023/12/29 22:44:48;;;;;;;13.03;3.40;;;;;;;7.88;100.00;100807.13;5229662;28;20369;-72
2023/12/29 22:47:19;;;;;;;20.93;4.57;;;;;;;7.94;100.00;100822.47;5232662;28;20119;-72
2023/12/29 22:49:50;;;;;;;17.37;3.50;;;;;;;7.91;100.00;100822.63;5232731;28;20029;-69
2023/12/29 22:52:22;;;;;;;20.47;4.60;;;;;;;7.91;100.00;100829.59;5231924;28;20380;-71
2023/12/29 22:54:53;;;;;;;17.97;3.67;;;;;;;7.91;100.00;100827.84;5234621;28;20708;-70
